»·PEaware :: N8408E KBUR-KLAS

N8408E :: KBUR-KLAS

FLIGHT INFORMATION

Flight Status: Arrived
Operator: Privately registered:
United States
More flights under this callsign
Pilot: John H. (22960)
Aircraft: CESSNA 172 SKYHAWK
(C172)
More flights by this aircraft type
Origin: KBUR Bob Hope-Burbank
United States
Destination: KLAS McCarran Intl
United States
More flights between these airports :: More routes between these airports
Route: +VNY3 DAG CRESO CRESO4
File this flight plan on PilotEdge
Remarks:
Altitude:
(Current/Filed)
11,000ft
Speed:
(Current/Filed)
115kts
Departed: 02-Feb-19 07:10 PM
Arrived: 02-Feb-19 09:28 PM
Distance/Time
Traveled:
194nm/2:18
Distance/Time
To Go:
Arrived

Flight Plot

Page will automatically refresh every two minutes.

Flight plan parsing failed; only flown route is shown


Map Options




Map Legend


Flown Route
Filed Route
Departure Airport
Arrival Airport
Navaid (VOR, NDB)
Fix

Horizontal Profiles

Position Reports

Time Latitude Longitude Heading Altitude Ground
Speed
02-Feb-19 19:04 34.196338 -118.367565 358 721ft 0kts
02-Feb-19 19:05 34.196338 -118.367565 358 721ft 0kts
02-Feb-19 19:06 34.196338 -118.367565 358 721ft 0kts
02-Feb-19 19:07 34.196338 -118.367565 358 721ft 0kts
02-Feb-19 19:08 34.196338 -118.367565 358 721ft 0kts
02-Feb-19 19:09 34.197003 -118.368854 299 723ft 0kts
02-Feb-19 19:10 34.197848 -118.364576 90 722ft 73kts
02-Feb-19 19:11 34.188447 -118.354300 228 1621ft 66kts
02-Feb-19 19:12 34.175184 -118.371507 227 2400ft 72kts
02-Feb-19 19:13 34.163301 -118.390571 268 3141ft 77kts
02-Feb-19 19:14 34.180278 -118.400398 345 3922ft 73kts
02-Feb-19 19:15 34.199848 -118.407113 342 4690ft 73kts
02-Feb-19 19:16 34.220108 -118.414295 346 5343ft 82kts
02-Feb-19 19:17 34.240182 -118.420193 346 6069ft 75kts
02-Feb-19 19:18 34.260852 -118.425801 350 6694ft 76kts
02-Feb-19 19:18 34.278232 -118.430631 347 7200ft 76kts
02-Feb-19 19:20 34.302700 -118.437558 346 7850ft 77kts
02-Feb-19 19:21 34.323833 -118.443707 346 8376ft 78kts
02-Feb-19 19:21 34.341608 -118.448650 347 8795ft 79kts
02-Feb-19 19:22 34.363117 -118.454786 347 9266ft 81kts
02-Feb-19 19:23 34.382689 -118.451110 44 9735ft 78kts
02-Feb-19 19:24 34.397641 -118.430591 51 10137ft 82kts
02-Feb-19 19:25 34.411943 -118.409357 48 10588ft 81kts
02-Feb-19 19:26 34.426264 -118.387578 52 10984ft 86kts
02-Feb-19 19:27 34.444207 -118.361129 50 11052ft 117kts
02-Feb-19 19:28 34.464320 -118.331082 51 11086ft 108kts
02-Feb-19 19:29 34.482796 -118.301797 53 11146ft 110kts
02-Feb-19 19:30 34.500566 -118.271927 52 11166ft 110kts
02-Feb-19 19:31 34.519481 -118.242839 50 11174ft 110kts
02-Feb-19 19:32 34.538031 -118.213511 53 11183ft 110kts
02-Feb-19 19:33 34.556504 -118.184070 51 11190ft 109kts
02-Feb-19 19:34 34.574729 -118.154490 52 11174ft 110kts
02-Feb-19 19:35 34.592690 -118.124704 54 11179ft 108kts
02-Feb-19 19:36 34.611365 -118.095413 46 11166ft 109kts
02-Feb-19 19:37 34.628352 -118.065242 85 11162ft 109kts
02-Feb-19 19:38 34.632284 -118.028577 82 11185ft 109kts
02-Feb-19 19:39 34.636992 -117.992051 81 11207ft 109kts
02-Feb-19 19:40 34.641342 -117.955509 82 11230ft 109kts
02-Feb-19 19:41 34.645461 -117.918773 81 11220ft 109kts
02-Feb-19 19:42 34.649634 -117.882170 80 11214ft 109kts
02-Feb-19 19:43 34.654194 -117.845511 81 11209ft 109kts
02-Feb-19 19:44 34.658603 -117.809056 81 11215ft 109kts
02-Feb-19 19:45 34.663144 -117.772444 81 11219ft 109kts
02-Feb-19 19:46 34.672194 -117.737235 72 11238ft 108kts
02-Feb-19 19:47 34.681337 -117.701944 73 11241ft 109kts
02-Feb-19 19:48 34.688701 -117.666081 71 11256ft 109kts
02-Feb-19 19:49 34.697839 -117.630028 71 11224ft 110kts
02-Feb-19 19:50 34.707344 -117.594182 72 11199ft 111kts
02-Feb-19 19:51 34.716723 -117.558292 69 11182ft 111kts
02-Feb-19 19:52 34.726016 -117.522401 74 11169ft 111kts
02-Feb-19 19:53 34.735121 -117.486567 71 11152ft 111kts
02-Feb-19 19:54 34.744096 -117.450548 72 11150ft 111kts
02-Feb-19 19:55 34.752824 -117.414614 72 11161ft 109kts
02-Feb-19 19:56 34.761887 -117.378988 72 11156ft 110kts
02-Feb-19 19:57 34.771229 -117.343462 72 11174ft 109kts
02-Feb-19 19:58 34.780240 -117.307551 73 11133ft 111kts
02-Feb-19 19:59 34.788807 -117.272024 73 11142ft 110kts
02-Feb-19 20:00 34.797845 -117.236425 71 11154ft 109kts
02-Feb-19 20:01 34.806693 -117.200724 72 11164ft 108kts
02-Feb-19 20:02 34.815509 -117.165382 71 11200ft 106kts
02-Feb-19 20:03 34.824318 -117.130088 72 11187ft 110kts
02-Feb-19 20:04 34.833339 -117.094589 72 11203ft 109kts
02-Feb-19 20:05 34.842396 -117.059087 71 11220ft 108kts
02-Feb-19 20:06 34.851574 -117.023937 72 11232ft 109kts
02-Feb-19 20:07 34.860402 -116.988531 71 11246ft 109kts
02-Feb-19 20:08 34.869212 -116.953046 72 11263ft 109kts
02-Feb-19 20:09 34.878201 -116.917670 72 11270ft 108kts
02-Feb-19 20:10 34.887340 -116.882156 71 11252ft 110kts
02-Feb-19 20:11 34.896336 -116.846430 74 11241ft 110kts
02-Feb-19 20:12 34.905300 -116.810586 73 11230ft 110kts
02-Feb-19 20:13 34.914228 -116.774792 72 11225ft 110kts
02-Feb-19 20:14 34.922969 -116.739120 73 11231ft 109kts
02-Feb-19 20:15 34.931657 -116.703449 72 11218ft 110kts
02-Feb-19 20:16 34.940255 -116.667806 72 11230ft 109kts
02-Feb-19 20:17 34.948966 -116.632266 72 11238ft 108kts
02-Feb-19 20:18 34.957810 -116.596668 72 11233ft 109kts
02-Feb-19 20:19 34.970352 -116.562779 61 11237ft 109kts
02-Feb-19 20:20 34.983873 -116.529400 61 11263ft 108kts
02-Feb-19 20:21 34.998402 -116.496622 62 11246ft 110kts
02-Feb-19 20:22 35.013023 -116.463822 63 11257ft 110kts
02-Feb-19 20:23 35.027253 -116.430726 60 11264ft 110kts
02-Feb-19 20:24 35.042306 -116.398233 60 11275ft 110kts
02-Feb-19 20:25 35.057082 -116.365384 60 11258ft 111kts
02-Feb-19 20:26 35.071893 -116.331730 61 11233ft 112kts
02-Feb-19 20:27 35.086760 -116.298352 60 11228ft 111kts
02-Feb-19 20:28 35.101593 -116.264957 60 11203ft 112kts
02-Feb-19 20:29 35.116428 -116.231707 62 11189ft 112kts
02-Feb-19 20:30 35.131056 -116.198534 62 11199ft 111kts
02-Feb-19 20:31 35.145589 -116.165115 61 11194ft 111kts
02-Feb-19 20:32 35.160169 -116.132066 62 11192ft 111kts
02-Feb-19 20:33 35.174710 -116.098701 61 11187ft 111kts
02-Feb-19 20:34 35.189290 -116.065464 62 11196ft 110kts
02-Feb-19 20:35 35.203682 -116.032104 61 11181ft 111kts
02-Feb-19 20:36 35.218445 -115.998912 61 11179ft 111kts
02-Feb-19 20:37 35.233183 -115.965788 61 11175ft 111kts
02-Feb-19 20:38 35.247697 -115.932491 61 11195ft 109kts
02-Feb-19 20:39 35.262009 -115.899153 61 11189ft 110kts
02-Feb-19 20:40 35.276466 -115.865804 61 11184ft 111kts
02-Feb-19 20:41 35.290974 -115.832530 61 11185ft 111kts
02-Feb-19 20:42 35.305307 -115.799794 60 11237ft 108kts
02-Feb-19 20:43 35.324400 -115.770976 47 11252ft 109kts
02-Feb-19 20:44 35.344529 -115.742999 48 11270ft 109kts
02-Feb-19 20:45 35.364688 -115.715189 47 11287ft 109kts
02-Feb-19 20:46 35.385288 -115.687730 50 11305ft 109kts
02-Feb-19 20:47 35.405591 -115.659974 48 11319ft 110kts
02-Feb-19 20:48 35.426465 -115.632750 46 11325ft 111kts
02-Feb-19 20:49 35.447402 -115.604904 45 11273ft 113kts
02-Feb-19 20:50 35.468648 -115.576397 46 11235ft 112kts
02-Feb-19 20:51 35.489705 -115.548156 47 11215ft 110kts
02-Feb-19 20:52 35.510332 -115.520193 47 11210ft 110kts
02-Feb-19 20:53 35.530741 -115.492439 49 11206ft 110kts
02-Feb-19 20:54 35.553419 -115.467639 40 11231ft 108kts
02-Feb-19 20:55 35.574244 -115.440339 49 11219ft 109kts
02-Feb-19 20:56 35.594012 -115.411939 48 11212ft 111kts
02-Feb-19 20:57 35.614365 -115.383890 51 11218ft 110kts
02-Feb-19 20:58 35.634540 -115.356080 48 11225ft 109kts
02-Feb-19 20:59 35.654892 -115.328247 48 10834ft 109kts
02-Feb-19 21:00 35.675058 -115.300151 48 10323ft 109kts
02-Feb-19 21:02 35.695349 -115.272529 47 9836ft 108kts
02-Feb-19 21:03 35.715408 -115.245204 48 9359ft 107kts
02-Feb-19 21:04 35.736299 -115.216938 50 9244ft 112kts
02-Feb-19 21:05 35.757292 -115.188227 48 8815ft 111kts
02-Feb-19 21:06 35.778069 -115.159520 48 8200ft 111kts
02-Feb-19 21:07 35.798816 -115.131144 47 7606ft 110kts
02-Feb-19 21:08 35.819739 -115.102822 48 7249ft 111kts
02-Feb-19 21:09 35.840715 -115.074252 47 7218ft 111kts
02-Feb-19 21:10 35.861587 -115.046148 46 7223ft 110kts
02-Feb-19 21:11 35.881670 -115.017991 48 7299ft 107kts
02-Feb-19 21:12 35.901792 -114.989114 48 7298ft 110kts
02-Feb-19 21:13 35.922085 -114.960732 50 7117ft 111kts
02-Feb-19 21:14 35.941660 -114.931198 49 6567ft 111kts
02-Feb-19 21:15 35.967217 -114.912792 9 6297ft 114kts
02-Feb-19 21:16 35.998514 -114.905558 12 6273ft 113kts
02-Feb-19 21:17 36.029570 -114.898391 10 5599ft 115kts
02-Feb-19 21:18 36.061141 -114.891670 9 5235ft 115kts
02-Feb-19 21:19 36.092097 -114.885647 2 5257ft 112kts
02-Feb-19 21:20 36.095572 -114.915968 249 5120ft 100kts
02-Feb-19 21:21 36.085209 -114.949059 245 4850ft 111kts
02-Feb-19 21:21 36.075423 -114.977783 251 4552ft 107kts
02-Feb-19 21:22 36.074274 -115.013302 264 4025ft 101kts
02-Feb-19 21:24 36.073887 -115.053854 269 3382ft 100kts
02-Feb-19 21:24 36.073554 -115.080766 272 3000ft 63kts
02-Feb-19 21:25 36.073535 -115.105452 271 2483ft 77kts
02-Feb-19 21:26 36.073692 -115.129791 266 2051ft 48kts
02-Feb-19 21:28 36.073946 -115.143988 287 2093ft 15kts
02-Feb-19 21:28 36.074725 -115.145905 299 2099ft 9kts
02-Feb-19 21:29 36.077700 -115.145067 80 2092ft 16kts

Navigation Log

Ident Type
Flight plan parsing failed, navigation log unavailable